createdAt,value
2019-04-22T00:02:17.478Z,51.90
2019-04-22T00:05:01.097Z,52.30
2019-04-22T00:07:44.955Z,50.90
2019-04-22T00:10:19.338Z,52.10
2019-04-22T00:12:47.086Z,52.50
2019-04-22T00:15:15.490Z,53.80
2019-04-22T00:17:56.991Z,53.50
2019-04-22T00:20:22.774Z,54.10
2019-04-22T00:22:52.077Z,55.00
2019-04-22T00:25:31.027Z,52.50
2019-04-22T00:27:59.063Z,53.80
2019-04-22T00:30:20.415Z,53.50
2019-04-22T00:33:03.398Z,55.50
2019-04-22T00:35:38.067Z,54.20
2019-04-22T00:38:12.868Z,54.70
2019-04-22T00:40:39.586Z,55.90
2019-04-22T00:43:13.588Z,54.30
2019-04-22T00:45:44.681Z,53.20
2019-04-22T00:48:17.832Z,55.90
2019-04-22T00:50:48.178Z,54.40
2019-04-22T00:53:22.502Z,54.50
2019-04-22T00:56:00.330Z,56.00
2019-04-22T00:58:36.545Z,56.10
2019-04-22T01:01:09.015Z,55.00
2019-04-22T01:03:44.151Z,53.40
2019-04-22T01:06:11.961Z,52.60
2019-04-22T01:08:51.231Z,52.40
2019-04-22T01:11:17.167Z,53.40
2019-04-22T01:13:38.706Z,52.50
2019-04-22T01:16:14.001Z,52.50
2019-04-22T01:18:42.341Z,52.60
2019-04-22T01:23:40.716Z,52.80
2019-04-22T01:26:09.904Z,52.50
2019-04-22T01:28:42.278Z,53.40
2019-04-22T01:31:07.396Z,54.60
2019-04-22T01:33:38.982Z,54.00
2019-04-22T01:36:24.555Z,51.60
2019-04-22T01:38:58.160Z,53.30
2019-04-22T01:41:35.840Z,54.80
2019-04-22T01:44:16.383Z,55.20
2019-04-22T01:46:39.334Z,57.30
2019-04-22T01:49:10.343Z,56.80
2019-04-22T01:51:48.568Z,56.60
2019-04-22T01:54:12.655Z,58.30
2019-04-22T01:56:40.838Z,58.00
2019-04-22T01:58:59.215Z,56.60
2019-04-22T02:01:43.603Z,58.40
2019-04-22T02:04:08.215Z,56.80
2019-04-22T02:12:04.616Z,58.50
2019-04-22T02:14:34.079Z,59.10
2019-04-22T02:17:05.176Z,58.50
2019-04-22T02:22:00.900Z,59.20
2019-04-22T02:24:39.610Z,58.80
2019-04-22T02:27:13.976Z,59.60
2019-04-22T02:32:23.255Z,59.90
2019-04-22T02:37:18.752Z,59.30
2019-04-22T02:39:41.011Z,60.10
2019-04-22T02:44:48.612Z,60.00
2019-04-22T02:52:26.139Z,60.10
2019-04-22T02:54:54.574Z,61.70
2019-04-22T02:57:30.194Z,61.30
2019-04-22T02:59:57.112Z,63.00
2019-04-22T03:02:34.696Z,61.30
2019-04-22T03:05:00.804Z,60.70
2019-04-22T03:07:23.529Z,61.80
2019-04-22T03:09:57.752Z,59.80
2019-04-22T03:14:53.552Z,57.10
2019-04-22T03:17:43.701Z,56.80
2019-04-22T03:20:04.267Z,56.00
2019-04-22T03:22:46.879Z,56.30
2019-04-22T03:25:32.728Z,56.20
2019-04-22T03:27:34.766Z,55.80
2019-04-22T03:33:06.472Z,56.80
2019-04-22T03:40:28.666Z,56.70
2019-04-22T03:52:56.138Z,57.80
2019-04-22T04:03:12.083Z,59.30
2019-04-22T04:05:45.474Z,58.30
2019-04-22T04:08:14.847Z,59.00
2019-04-22T04:10:37.116Z,57.90
2019-04-22T04:13:03.384Z,57.20
2019-04-22T04:16:03.250Z,57.80
2019-04-22T04:18:05.015Z,57.30
2019-04-22T04:25:42.734Z,57.40
2019-04-22T04:28:29.821Z,56.90
2019-04-22T04:30:42.631Z,57.90
2019-04-22T04:33:15.723Z,57.90
2019-04-22T04:35:47.822Z,57.40
2019-04-22T04:38:05.107Z,57.00
2019-04-22T04:40:41.941Z,57.30
2019-04-22T04:43:15.643Z,58.20
2019-04-22T04:48:21.191Z,57.70
2019-04-22T04:50:58.651Z,57.70
2019-04-22T04:55:53.150Z,56.40
2019-04-22T04:58:36.754Z,56.20
2019-04-22T05:00:57.753Z,55.90
2019-04-22T05:03:29.796Z,55.50
2019-04-22T05:05:59.281Z,55.30
2019-04-22T05:08:39.167Z,55.80
2019-04-22T05:10:56.534Z,57.80
2019-04-22T05:13:32.928Z,58.50
2019-04-22T05:16:18.432Z,56.90
2019-04-22T05:18:37.328Z,55.30
2019-04-22T05:21:09.680Z,55.60
2019-04-22T05:23:30.481Z,55.30
2019-04-22T05:26:04.206Z,56.90
2019-04-22T05:28:31.524Z,57.70
2019-04-22T05:31:05.157Z,60.10
2019-04-22T05:33:36.068Z,59.60
2019-04-22T05:36:08.385Z,59.60
2019-04-22T05:38:42.773Z,59.80
2019-04-22T05:41:05.247Z,58.40
2019-04-22T05:43:38.663Z,58.30
2019-04-22T05:46:09.129Z,59.00
2019-04-22T05:48:46.661Z,58.00
2019-04-22T05:51:10.044Z,59.30
2019-04-22T05:53:40.553Z,58.20
2019-04-22T05:56:20.819Z,57.10
2019-04-22T05:58:47.348Z,57.00
2019-04-22T06:01:38.587Z,56.30
2019-04-22T06:03:52.856Z,56.20
2019-04-22T06:08:55.850Z,53.90
2019-04-22T06:11:28.446Z,52.80
2019-04-22T06:13:51.903Z,51.40
2019-04-22T06:16:31.242Z,51.10
2019-04-22T06:19:03.030Z,51.70
2019-04-22T06:21:36.016Z,52.10
2019-04-22T06:24:04.894Z,51.70
2019-04-22T06:26:48.899Z,49.70
2019-04-22T06:29:13.768Z,50.00
2019-04-22T06:31:49.835Z,48.50
2019-04-22T06:34:14.473Z,49.30
2019-04-22T06:36:47.766Z,49.40
2019-04-22T06:39:14.589Z,49.90
2019-04-22T06:41:42.018Z,49.80
2019-04-22T06:46:41.917Z,48.50
2019-04-22T06:49:21.056Z,49.50
2019-04-22T06:51:45.328Z,47.90
2019-04-22T06:54:14.101Z,48.10
2019-04-22T06:56:49.158Z,48.30
2019-04-22T06:59:19.003Z,48.00
2019-04-22T07:01:51.946Z,48.10
2019-04-22T07:04:19.820Z,48.40
2019-04-22T07:06:56.804Z,48.20
2019-04-22T07:12:02.165Z,47.30
2019-04-22T07:14:23.857Z,46.60
2019-04-22T07:16:57.513Z,46.80
2019-04-22T07:19:28.146Z,47.40
2019-04-22T07:22:11.162Z,47.30
2019-04-22T07:24:40.640Z,45.90
2019-04-22T07:27:08.158Z,45.80
2019-04-22T07:29:32.694Z,45.50
2019-04-22T07:34:35.479Z,44.10
2019-04-22T07:39:37.941Z,43.80
2019-04-22T07:42:16.667Z,43.60
2019-04-22T07:44:43.022Z,43.20
2019-04-22T07:47:18.576Z,43.70
2019-04-22T07:52:10.013Z,39.80
2019-04-22T07:54:51.012Z,40.00
2019-04-22T07:57:20.176Z,40.70
2019-04-22T07:59:49.300Z,39.00
2019-04-22T08:02:18.859Z,38.80
2019-04-22T08:04:58.996Z,38.70
2019-04-22T08:07:19.466Z,37.80
2019-04-22T08:12:19.784Z,36.90
2019-04-22T08:14:52.570Z,36.50
2019-04-22T08:17:50.854Z,35.80
2019-04-22T08:19:56.079Z,35.20
2019-04-22T08:22:23.998Z,35.30
2019-04-22T08:24:54.285Z,35.30
2019-04-22T08:27:22.488Z,34.70
2019-04-22T08:32:34.598Z,34.50
2019-04-22T08:35:05.136Z,34.00
2019-04-22T08:40:07.800Z,34.20
2019-04-22T08:42:43.220Z,33.50
2019-04-22T08:45:09.487Z,34.10
2019-04-22T08:47:36.286Z,33.00
2019-04-22T08:50:21.943Z,32.80
2019-04-22T08:52:40.659Z,32.80
2019-04-22T08:55:14.334Z,33.20
2019-04-22T08:58:04.833Z,33.60
2019-04-22T09:00:15.451Z,33.30
2019-04-22T09:02:48.192Z,33.30
2019-04-22T09:05:22.524Z,33.10
2019-04-22T09:07:47.107Z,33.70
2019-04-22T09:10:20.328Z,32.90
2019-04-22T09:12:56.928Z,32.70
2019-04-22T09:15:18.497Z,32.00
2019-04-22T09:18:00.441Z,32.20
2019-04-22T09:20:20.740Z,31.50
2019-04-22T09:22:56.930Z,30.60
2019-04-22T09:25:26.607Z,32.80
2019-04-22T09:28:10.483Z,31.30
2019-04-22T09:30:27.463Z,30.60
2019-04-22T09:33:04.255Z,31.70
2019-04-22T09:35:31.635Z,30.70
2019-04-22T09:38:12.619Z,30.20
2019-04-22T09:40:34.491Z,31.40
2019-04-22T09:43:24.447Z,31.30
2019-04-22T09:45:52.804Z,31.10
2019-04-22T09:48:29.747Z,31.00
2019-04-22T09:50:54.069Z,30.90
2019-04-22T09:53:32.298Z,30.80
2019-04-22T09:56:03.939Z,30.90
2019-04-22T09:58:31.611Z,31.40
2019-04-22T10:01:18.773Z,31.00
2019-04-22T10:03:51.407Z,31.40
2019-04-22T10:06:24.766Z,31.20
2019-04-22T10:11:31.311Z,30.50
2019-04-22T10:13:53.837Z,30.80
2019-04-22T10:16:29.217Z,30.90
2019-04-22T10:18:55.735Z,29.90
2019-04-22T10:21:35.801Z,28.90
2019-04-22T10:23:57.951Z,29.60
2019-04-22T10:26:27.973Z,28.10
2019-04-22T10:29:00.541Z,28.30
2019-04-22T10:31:39.128Z,28.60
2019-04-22T10:33:49.642Z,27.50
2019-04-22T10:36:07.873Z,27.60
2019-04-22T10:38:37.432Z,27.70
2019-04-22T10:41:08.307Z,26.90
2019-04-22T10:43:38.987Z,26.90
2019-04-22T10:46:10.369Z,26.90
2019-04-22T10:48:42.076Z,27.10
2019-04-22T10:51:12.702Z,26.70
2019-04-22T10:53:43.626Z,26.60
2019-04-22T10:56:13.149Z,27.60
2019-04-22T10:58:42.631Z,26.90
2019-04-22T11:01:25.625Z,27.20
2019-04-22T11:03:55.228Z,27.30
2019-04-22T11:06:25.393Z,26.90
2019-04-22T11:08:59.807Z,26.50
2019-04-22T11:11:34.821Z,26.30
2019-04-22T11:13:58.043Z,26.00
2019-04-22T11:16:27.868Z,26.50
2019-04-22T11:18:57.454Z,26.10
2019-04-22T11:21:27.445Z,25.30
2019-04-22T11:23:58.601Z,25.20
2019-04-22T11:26:28.332Z,25.20
2019-04-22T11:28:59.252Z,26.10
2019-04-22T11:31:30.362Z,25.50
2019-04-22T11:34:00.769Z,25.70
2019-04-22T11:36:30.902Z,25.70
2019-04-22T11:39:05.409Z,26.10
2019-04-22T11:41:36.161Z,25.90
2019-04-22T11:44:07.559Z,26.10
2019-04-22T11:46:37.029Z,25.30
2019-04-22T11:49:07.828Z,24.50
2019-04-22T11:51:38.067Z,24.70
2019-04-22T11:54:07.586Z,24.70
2019-04-22T11:56:38.804Z,25.10
2019-04-22T11:59:08.896Z,24.50
2019-04-22T12:01:39.039Z,25.30
2019-04-22T12:04:09.696Z,24.90
2019-04-22T12:06:40.095Z,25.20
2019-04-22T12:09:12.944Z,25.50
2019-04-22T12:11:42.337Z,25.80
2019-04-22T12:14:11.814Z,25.90
2019-04-22T12:16:41.400Z,25.40
2019-04-22T12:19:11.453Z,25.40
2019-04-22T12:21:41.315Z,26.00
2019-04-22T12:24:13.075Z,25.80
2019-04-22T12:26:42.568Z,26.50
2019-04-22T12:29:13.328Z,25.00
2019-04-22T12:31:42.925Z,25.90
2019-04-22T12:34:13.282Z,25.20
2019-04-22T12:36:42.784Z,24.30
2019-04-22T12:39:13.596Z,23.30
2019-04-22T12:41:44.301Z,23.60
2019-04-22T12:44:15.042Z,23.70
2019-04-22T12:46:46.005Z,23.30
2019-04-22T12:49:16.289Z,22.70
2019-04-22T12:51:47.378Z,22.90
2019-04-22T12:54:17.111Z,23.20
2019-04-22T12:56:47.843Z,22.60
2019-04-22T12:59:17.524Z,23.10
2019-04-22T13:01:47.013Z,23.30
2019-04-22T13:04:19.455Z,23.50
2019-04-22T13:06:48.033Z,23.70
2019-04-22T13:09:19.367Z,23.80
2019-04-22T13:11:48.962Z,24.00
2019-04-22T13:14:19.160Z,24.60
2019-04-22T13:16:49.174Z,24.40
2019-04-22T13:19:20.958Z,24.30
2019-04-22T13:21:50.964Z,23.80
2019-04-22T13:24:21.742Z,24.00
2019-04-22T13:26:52.848Z,24.10
2019-04-22T13:29:23.234Z,24.50
2019-04-22T13:31:53.137Z,24.40
2019-04-22T13:34:31.629Z,23.70
2019-04-22T13:36:54.941Z,23.60
2019-04-22T13:39:25.048Z,24.30
2019-04-22T13:42:00.654Z,23.60
2019-04-22T13:44:25.749Z,23.40
2019-04-22T13:47:08.162Z,23.50
2019-04-22T13:50:01.090Z,24.00
2019-04-22T13:52:31.954Z,23.90
2019-04-22T13:55:05.684Z,23.50
2019-04-22T13:57:19.837Z,24.00
2019-04-22T13:59:40.355Z,24.70
2019-04-22T14:02:12.782Z,24.40
2019-04-22T14:04:46.317Z,23.90
2019-04-22T14:07:16.630Z,23.80
2019-04-22T14:09:46.516Z,23.40
2019-04-22T14:12:17.960Z,23.50
2019-04-22T14:14:49.083Z,23.70
2019-04-22T14:17:18.772Z,23.80
2019-04-22T14:19:50.655Z,23.50
2019-04-22T14:22:22.032Z,22.90
2019-04-22T14:24:52.379Z,23.20
2019-04-22T14:27:31.642Z,23.40
2019-04-22T14:30:06.285Z,23.20
2019-04-22T14:32:36.517Z,22.50
2019-04-22T14:35:09.113Z,23.00
2019-04-22T14:37:38.683Z,23.00
2019-04-22T14:40:09.969Z,22.70
2019-04-22T14:43:03.469Z,22.90
2019-04-22T14:45:43.837Z,22.60
2019-04-22T14:48:09.590Z,22.80
2019-04-22T14:50:35.167Z,23.60
2019-04-22T14:53:04.170Z,23.10
2019-04-22T14:55:23.110Z,23.30
2019-04-22T14:57:49.019Z,23.50
2019-04-22T15:00:21.962Z,23.80
2019-04-22T15:02:51.893Z,23.90
2019-04-22T15:05:22.031Z,24.00
2019-04-22T15:07:52.921Z,24.50
2019-04-22T15:10:24.310Z,24.30
2019-04-22T15:12:56.973Z,24.30
2019-04-22T15:15:29.194Z,23.70
2019-04-22T15:18:00.948Z,24.30
2019-04-22T15:20:52.202Z,25.40
2019-04-22T15:23:20.364Z,25.20
2019-04-22T15:25:50.733Z,24.70
2019-04-22T15:28:21.592Z,24.10
2019-04-22T15:30:51.329Z,23.00
2019-04-22T15:33:21.426Z,23.10
2019-04-22T15:35:51.537Z,23.80
2019-04-22T15:38:23.794Z,23.60
2019-04-22T15:40:54.537Z,23.10
2019-04-22T15:43:27.342Z,23.10
2019-04-22T15:45:55.263Z,22.80
2019-04-22T15:48:27.212Z,23.10
2019-04-22T15:50:58.352Z,21.90
2019-04-22T15:53:27.893Z,22.00
2019-04-22T15:55:58.687Z,22.00
2019-04-22T15:58:28.232Z,22.00
2019-04-22T16:01:08.886Z,21.90
2019-04-22T16:03:29.145Z,22.30
2019-04-22T16:05:59.782Z,21.50
2019-04-22T16:08:32.369Z,21.50
2019-04-22T16:11:00.273Z,21.70
2019-04-22T16:13:34.023Z,22.50
2019-04-22T16:16:00.709Z,22.40
2019-04-22T16:18:30.727Z,22.20
2019-04-22T16:21:00.565Z,22.10
2019-04-22T16:23:32.194Z,21.80
2019-04-22T16:26:22.064Z,22.10
2019-04-22T16:28:55.451Z,22.30
2019-04-22T16:31:25.031Z,22.80
2019-04-22T16:33:56.187Z,23.30
2019-04-22T16:36:26.908Z,23.60
2019-04-22T16:38:57.033Z,24.00
2019-04-22T16:41:26.622Z,24.00
2019-04-22T16:43:56.338Z,24.30
2019-04-22T16:46:25.812Z,24.30
2019-04-22T16:48:55.967Z,24.60
2019-04-22T16:51:27.645Z,24.30
2019-04-22T16:53:58.002Z,24.60
2019-04-22T16:56:29.077Z,24.90
2019-04-22T16:58:58.976Z,24.90
2019-04-22T17:01:43.146Z,24.90
2019-04-22T17:04:18.625Z,25.30
2019-04-22T17:06:49.837Z,25.50
2019-04-22T17:09:21.629Z,25.50
2019-04-22T17:11:52.159Z,25.90
2019-04-22T17:14:29.578Z,26.20
2019-04-22T17:16:52.886Z,26.30
2019-04-22T17:19:23.618Z,26.30
2019-04-22T17:21:53.519Z,26.40
2019-04-22T17:24:23.661Z,26.70
2019-04-22T17:26:54.720Z,26.80
2019-04-22T17:29:24.354Z,27.10
2019-04-22T17:32:00.660Z,27.40
2019-04-22T17:34:25.458Z,27.50
2019-04-22T17:36:55.254Z,28.00
2019-04-22T17:39:40.182Z,28.20
2019-04-22T17:42:14.105Z,28.40
2019-04-22T17:44:57.148Z,28.10
2019-04-22T17:47:25.877Z,28.00
2019-04-22T17:50:08.313Z,28.30
2019-04-22T17:52:38.878Z,28.40
2019-04-22T17:55:07.562Z,28.70
2019-04-22T17:57:34.394Z,28.80
2019-04-22T18:00:06.873Z,29.00
2019-04-22T18:02:35.693Z,29.10
2019-04-22T18:04:56.254Z,29.00
2019-04-22T18:07:42.945Z,29.10
2019-04-22T18:10:29.984Z,28.80
2019-04-22T18:12:50.187Z,29.10
2019-04-22T18:15:14.613Z,29.40
2019-04-22T18:17:46.298Z,29.30
2019-04-22T18:20:13.134Z,29.30
2019-04-22T18:22:39.668Z,29.90
2019-04-22T18:25:11.540Z,30.00
2019-04-22T18:28:00.667Z,30.20
2019-04-22T18:30:20.365Z,30.60
2019-04-22T18:32:55.851Z,31.20
2019-04-22T18:35:29.728Z,31.30
2019-04-22T18:38:03.105Z,32.80
2019-04-22T18:40:30.550Z,31.80
2019-04-22T18:43:04.814Z,32.20
2019-04-22T18:45:47.277Z,32.80
2019-04-22T18:48:02.591Z,32.30
2019-04-22T18:50:45.610Z,32.50
2019-04-22T18:53:21.712Z,33.80
2019-04-22T18:55:45.738Z,32.60
2019-04-22T18:58:18.060Z,34.70
2019-04-22T19:00:36.467Z,34.40
2019-04-22T19:03:15.902Z,34.50
2019-04-22T19:06:03.642Z,34.40
2019-04-22T19:08:30.422Z,34.20
2019-04-22T19:11:09.971Z,33.80
2019-04-22T19:16:31.010Z,35.80
2019-04-22T19:18:44.517Z,34.90
2019-04-22T19:21:13.186Z,35.30
2019-04-22T19:23:37.330Z,35.60
2019-04-22T19:26:13.808Z,36.00
2019-04-22T19:28:46.508Z,36.20
2019-04-22T19:31:19.063Z,35.30
2019-04-22T19:33:47.579Z,35.30
2019-04-22T19:36:14.616Z,35.60
2019-04-22T19:38:45.453Z,35.10
2019-04-22T19:41:19.939Z,35.30
2019-04-22T19:43:53.289Z,35.60
2019-04-22T19:46:19.480Z,35.60
2019-04-22T19:48:56.498Z,35.40
2019-04-22T19:51:29.471Z,36.00
2019-04-22T19:53:57.718Z,36.30
2019-04-22T19:56:21.485Z,36.10
2019-04-22T19:58:53.224Z,36.80
2019-04-22T20:01:41.667Z,37.10
2019-04-22T20:06:53.316Z,37.50
2019-04-22T20:09:29.845Z,36.70
2019-04-22T20:11:57.493Z,37.20
2019-04-22T20:14:28.112Z,36.80
2019-04-22T20:16:54.368Z,36.70
2019-04-22T20:19:39.789Z,37.10
2019-04-22T20:22:03.036Z,37.30
2019-04-22T20:24:18.125Z,37.40
2019-04-22T20:27:02.924Z,37.50
2019-04-22T20:29:38.410Z,37.90
2019-04-22T20:32:05.943Z,38.20
2019-04-22T20:34:38.016Z,38.40
2019-04-22T20:39:44.239Z,37.80
2019-04-22T20:42:27.787Z,37.90
2019-04-22T20:44:46.045Z,38.80
2019-04-22T20:47:10.626Z,38.40
2019-04-22T20:49:47.220Z,38.20
2019-04-22T20:52:19.268Z,38.30
2019-04-22T20:54:45.018Z,38.10
2019-04-22T20:57:17.242Z,37.70
2019-04-22T20:59:48.130Z,37.90
2019-04-22T21:02:15.184Z,38.10
2019-04-22T21:04:41.090Z,38.40
2019-04-22T21:07:16.731Z,38.50
2019-04-22T21:09:49.301Z,37.70
2019-04-22T21:12:17.640Z,38.00
2019-04-22T21:15:02.511Z,37.60
2019-04-22T21:17:25.005Z,38.10
2019-04-22T21:20:00.588Z,38.00
2019-04-22T21:22:29.220Z,37.90
2019-04-22T21:24:52.212Z,38.30
2019-04-22T21:27:38.267Z,38.10
2019-04-22T21:29:56.322Z,38.00
2019-04-22T21:32:34.526Z,38.70
2019-04-22T21:35:13.363Z,38.50
2019-04-22T21:37:58.614Z,38.50
2019-04-22T21:40:10.716Z,38.70
2019-04-22T21:42:48.898Z,38.30
2019-04-22T21:45:05.738Z,38.80
2019-04-22T21:47:55.627Z,38.40
2019-04-22T21:50:28.317Z,38.70
2019-04-22T21:52:50.887Z,38.60
2019-04-22T21:55:16.925Z,38.40
2019-04-22T21:58:07.003Z,38.50
2019-04-22T22:00:54.063Z,38.40
2019-04-22T22:03:18.936Z,38.00
2019-04-22T22:05:39.794Z,38.30
2019-04-22T22:08:23.539Z,38.10
2019-04-22T22:10:52.314Z,38.70
2019-04-22T22:13:15.577Z,38.30
2019-04-22T22:15:52.394Z,38.40
2019-04-22T22:18:16.420Z,38.60
2019-04-22T22:21:12.953Z,37.90
2019-04-22T22:25:52.280Z,38.20
2019-04-22T22:28:42.043Z,38.90
2019-04-22T22:31:04.460Z,38.70
2019-04-22T22:33:28.333Z,38.50
2019-04-22T22:35:58.426Z,38.20
2019-04-22T22:38:27.102Z,38.30
2019-04-22T22:40:43.683Z,38.30
2019-04-22T22:43:20.379Z,38.50
2019-04-22T22:45:54.451Z,37.90
2019-04-22T22:48:41.438Z,38.00
2019-04-22T22:51:06.877Z,38.40
2019-04-22T22:56:13.586Z,38.10
2019-04-22T22:58:41.261Z,38.70
2019-04-22T23:01:09.931Z,38.30
2019-04-22T23:03:51.706Z,38.90
2019-04-22T23:06:20.767Z,38.50
2019-04-22T23:08:51.691Z,38.50
2019-04-22T23:11:22.344Z,38.10
2019-04-22T23:13:49.733Z,38.90
2019-04-22T23:16:12.635Z,38.60
2019-04-22T23:18:34.101Z,38.30
2019-04-22T23:21:08.356Z,39.00
2019-04-22T23:23:51.671Z,38.90
2019-04-22T23:26:29.832Z,39.00
2019-04-22T23:28:58.926Z,38.90
2019-04-22T23:31:29.437Z,39.50
2019-04-22T23:34:09.551Z,39.40
2019-04-22T23:36:45.889Z,39.60
2019-04-22T23:39:27.518Z,39.00
2019-04-22T23:44:37.980Z,39.50
2019-04-22T23:46:59.934Z,39.00
2019-04-22T23:49:28.162Z,39.00
2019-04-22T23:52:09.678Z,38.90
2019-04-22T23:54:43.545Z,39.00
2019-04-22T23:57:03.353Z,39.60
2019-04-22T23:59:50.116Z,39.10
